Frankenstein, Missouri
Current Conditions -  °F | °C
As of 7:38 PM on Monday 22 Dec 2014 (Local Time) from KJEF Reporting Station
Moderate Rain Moderate Rain  
Wind Chill: 45°   Ceiling: 900
Heat Index: 49°   Visibility: 5mi
Dew Point: 47°   Wind: 8mph
Humidity: 93%   Direction: 210°SSW
Pressure: 29.51"   Gusts: NA
Location:  38.559°N, 91.9214°W
Report Text: KJEF 230138Z 21007KT 5SM RA BR BKN009 BKN016 OVC026 09/08 A2951 RMK AO2 P0009 T00940083
Loading
Personal Weather Stations






























Interactive Weather Map New forecast layout! Learn more

10-Day Weather Forecast

Advertisements
Track Severe Weather on mobile